• Join FlightAware (Why Join?)
  • Login
  • US Flag 
08:30PM EDT


 

Airport Tracker/Info


-or-


 

Live Flight TrackerFlight Track Log ✈ SWA2236 ✈ 05-Aug-2013 ✈ KLAS - KJAX

Flight Track Log - Related Links

Times and Time Zones

All times are in EDT time to prevent confusion due to time zone crossing. See the SWA2236 flight status page for this flight to view local times or setup timezone preferences in your user account.

Time Position Orientation Groundspeed Altitude Reporting Facility
EDT Latitude Longitude Course Direction KTS MPH feet Rate Location/Type
02:43PM 36.0761 -115.1789 254° West 181 208 3,200  Level Los Angeles Center
02:45PM 36.0569 -115.2594 254° West 239 275 4,900 1,800 Climbing Los Angeles Center
02:46PM 35.9878 -115.2928 201° Southwest 265 305 7,500 1,440 Climbing Los Angeles Center
02:47PM 35.9225 -115.2603 158° South 280 322 8,000 1,140 Climbing Los Angeles Center
02:48PM 35.9194 -115.1622 92° East 289 333 9,900 1,860 Climbing Los Angeles Center
02:49PM 35.9203 -115.0311 90° East 312 359 11,900 2,220 Climbing Los Angeles Center
02:50PM 35.9219 -114.9047 89° East 355 409 14,500 2,400 Climbing Los Angeles Center
02:51PM 35.9217 -114.7769 90° East 368 423 16,900 2,160 Climbing Los Angeles Center
02:52PM 35.9222 -114.6408 90° East 387 445 19,000 1,980 Climbing Los Angeles Center
02:53PM 35.9217 -114.5000 90° East 406 467 21,000 1,860 Climbing Los Angeles Center
02:54PM 35.9225 -114.3536 90° East 423 487 22,900 1,980 Climbing Los Angeles Center
02:55PM 35.9225 -114.1731 90° East 437 503 25,200 1,860 Climbing Los Angeles Center
02:56PM 35.9217 -114.0211 90° East 442 509 26,800 1,500 Climbing Los Angeles Center
02:57PM 35.9200 -113.8653 91° East 452 520 28,300 1,200 Climbing Los Angeles Center
02:58PM 35.8925 -113.7111 102° East 458 527 29,300 1,140 Climbing Los Angeles Center
02:59PM 35.8667 -113.5503 101° East 468 539 30,700 1,620 Climbing Los Angeles Center
03:00PM 35.8528 -113.3917 96° East 468 539 32,700 1,800 Climbing Los Angeles Center
03:01PM 35.8547 -113.2344 89° East 462 532 34,500 1,080 Climbing Los Angeles Center
03:02PM 35.8558 -113.0478 90° East 456 525 35,000 240 Climbing Los Angeles Center
03:03PM 35.8575 -112.8925 89° East 454 522 35,000  Level Los Angeles Center
03:04PM 35.8572 -112.7367 90° East 454 522 35,000  Level Los Angeles Center
03:05PM 35.8589 -112.5817 89° East 453 521 35,000 420 Level Los Angeles Center
03:06PM 35.8583 -112.4253 90° East 455 524 35,900 900 Climbing Los Angeles Center
03:07PM 35.8597 -112.2700 89° East 455 524 36,900 480 Climbing Los Angeles Center
03:08PM 35.8594 -112.0842 90° East 455 524 37,000  Climbing Los Angeles Center
03:09PM 35.8586 -111.9272 90° East 457 526 37,000  Level Los Angeles Center
03:10PM 35.8575 -111.7689 90° East 462 532 37,000  Level Los Angeles Center
03:12PM 35.8581 -111.6100 90° East 463 533 37,000  Level Los Angeles Center
03:13PM 35.8589 -111.4514 90° East 462 532 37,000  Level Los Angeles Center
03:14PM 35.8583 -111.2614 90° East 463 533 37,000  Level Los Angeles Center
03:14PM 35.8547 -111.1400 92° East 459 528 37,000  Level Denver Center
03:15PM 35.8542 -110.9831 90° East 460 529 37,000  Level Denver Center
03:17PM 35.8528 -110.8275 91° East 456 525 37,000  Level Denver Center
03:18PM 35.8511 -110.6722 91° East 456 525 37,000  Level Denver Center
03:19PM 35.8783 -110.4911 79° East 462 532 37,000  Level Denver Center
03:20PM 35.9422 -110.3536 60° Northeast 463 533 37,000  Level Denver Center
03:21PM 36.0108 -110.2147 59° Northeast 470 541 37,000  Level Denver Center
03:22PM 36.0778 -110.0581 62° Northeast 467 537 37,000  Level Denver Center
03:23PM 36.0992 -109.9072 80° East 463 533 37,000  Level Denver Center
03:24PM 36.1214 -109.7581 80° East 461 531 37,000  Level Denver Center
03:25PM 36.1486 -109.5836 79° East 462 532 37,000  Level Denver Center
03:26PM 36.1714 -109.4347 79° East 460 529 37,000  Level Denver Center
03:27PM 36.1958 -109.2614 80° East 457 526 37,000  Level Denver Center
03:28PM 36.1728 -109.1175 101° East 445 512 37,000  Level Denver Center
03:29PM 36.1164 -108.9611 114° Southeast 449 517 37,000  Level Denver Center
03:30PM 36.0628 -108.8194 115° Southeast 451 519 37,000  Level Denver Center
03:31PM 36.0258 -108.6697 107° East 453 521 37,000  Level Denver Center
03:32PM 35.9944 -108.5022 103° East 450 518 37,000  Level Denver Center
03:33PM 35.9842 -108.3539 95° East 453 521 37,000  Level Denver Center
03:34PM 35.9683 -108.1806 96° East 455 524 37,000  Level Denver Center
03:35PM 35.9550 -108.0322 96° East 455 524 37,000  Level Denver Center
03:36PM 35.9389 -107.8583 96° East 457 526 37,000  Level Denver Center
03:37PM 35.9258 -107.7100 96° East 455 524 37,000  Level Denver Center
03:38PM 35.9083 -107.5367 97° East 457 526 37,000  Level Denver Center
03:39PM 35.8961 -107.4003 96° East 456 525 37,000  Level Denver Center
03:40PM 35.8803 -107.2444 97° East 457 526 37,000  Level Denver Center
03:41PM 35.8664 -107.0878 96° East 457 526 37,000  Level Denver Center
03:43PM 35.8411 -106.8439 97° East 454 522 37,000  Level Albuquerque Center
03:44PM 35.8258 -106.6983 97° East 448 516 37,000  Level Albuquerque Center
03:45PM 35.8089 -106.5244 97° East 446 513 37,000  Level Albuquerque Center
03:46PM 35.7928 -106.3689 97° East 455 524 37,000  Level Albuquerque Center
03:47PM 35.7758 -106.2172 98° East 451 519 37,000  Level Albuquerque Center
03:48PM 35.7653 -106.0797 95° East 437 503 37,000  Level Albuquerque Center
03:49PM 35.7494 -105.9258 97° East 447 514 37,000  Level Albuquerque Center
03:50PM 35.7308 -105.7667 98° East 456 525 37,000  Level Albuquerque Center
03:51PM 35.7106 -105.5856 98° East 454 522 37,000  Level Albuquerque Center
03:52PM 35.6908 -105.4314 99° East 454 522 37,000  Level Albuquerque Center
03:53PM 35.6742 -105.2761 97° East 454 522 37,000  Level Albuquerque Center
03:54PM 35.6572 -105.1189 98° East 457 526 37,000  Level Albuquerque Center
03:55PM 35.6394 -104.9622 98° East 458 527 37,000  Level Albuquerque Center
03:56PM 35.6217 -104.8072 98° East 454 522 37,000  Level Albuquerque Center
03:57PM 35.6039 -104.6508 98° East 456 525 37,000  Level Albuquerque Center
03:58PM 35.5842 -104.4692 98° East 455 524 37,000  Level Albuquerque Center
03:59PM 35.5669 -104.3128 98° East 455 524 37,000  Level Albuquerque Center
04:00PM 35.5489 -104.1564 98° East 454 522 37,000  Level Albuquerque Center
04:01PM 35.5303 -104.0000 98° East 455 524 37,000  Level Albuquerque Center
04:02PM 35.5122 -103.8444 98° East 453 521 37,000  Level Albuquerque Center
04:03PM 35.4925 -103.6889 99° East 455 524 37,000  Level Albuquerque Center
04:04PM 35.4744 -103.5347 98° East 452 520 37,000  Level Albuquerque Center
04:05PM 35.4556 -103.3803 98° East 454 522 37,000  Level Albuquerque Center
04:06PM 35.4353 -103.2264 99° East 454 522 37,000  Level Albuquerque Center
04:08PM 35.4161 -103.0706 99° East 457 526 37,000  Level Albuquerque Center
04:09PM 35.3928 -102.8894 99° East 458 527 37,000  Level Albuquerque Center
04:10PM 35.3742 -102.7328 98° East 460 529 37,000  Level Albuquerque Center
04:11PM 35.3542 -102.5797 99° East 460 529 37,000  Level Albuquerque Center
04:12PM 35.3328 -102.4275 100° East 457 526 37,000  Level Albuquerque Center
04:13PM 35.3125 -102.2733 99° East 458 527 37,000  Level Albuquerque Center
04:14PM 35.2922 -102.1219 99° East 454 522 37,000  Level Albuquerque Center
04:15PM 35.2703 -101.9583 99° East 458 527 37,000  Level Albuquerque Center
04:16PM 35.2497 -101.8050 99° East 455 524 37,000  Level Albuquerque Center
04:17PM 35.2239 -101.6369 101° East 456 525 37,000  Level Albuquerque Center
04:18PM 35.1942 -101.4886 104° East 450 518 37,000  Level Albuquerque Center
04:19PM 35.1572 -101.3203 105° East 454 522 37,000  Level Albuquerque Center
04:20PM 35.1250 -101.1711 105° East 456 525 37,000  Level Albuquerque Center
04:21PM 35.0936 -101.0222 104° East 454 522 37,000  Level Albuquerque Center
04:22PM 35.0642 -100.8744 104° East 452 520 37,000  Level Albuquerque Center
04:23PM 35.0306 -100.7236 105° East 458 527 37,000  Level Albuquerque Center
04:24PM 34.9986 -100.5736 105° East 457 526 37,000  Level Albuquerque Center
04:25PM 34.9661 -100.4236 105° East 459 528 37,000  Level Albuquerque Center
04:26PM 34.9314 -100.2600 104° East 460 529 37,000  Level Albuquerque Center
04:27PM 34.8989 -100.1092 105° East 460 529 37,000  Level Albuquerque Center
04:28PM 34.8639 -99.9578 106° East 463 533 37,000  Level Albuquerque Center
04:29PM 34.8439 -99.8703 106° East 462 532 37,000  Level Fort Worth Center
04:30PM 34.8092 -99.7175 105° East 457 526 37,000  Level Fort Worth Center
04:31PM 34.7744 -99.5647 105° East 463 533 37,000  Level Fort Worth Center
04:32PM 34.7414 -99.4175 105° East 463 533 37,000  Level Fort Worth Center
04:33PM 34.7061 -99.2650 106° East 463 533 37,000  Level Fort Worth Center
04:34PM 34.6750 -99.1128 104° East 463 533 37,000  Level Fort Worth Center
04:35PM 34.6394 -98.9633 106° East 463 533 37,000  Level Fort Worth Center
04:36PM 34.6056 -98.8189 106° East 449 517 37,000  Level Fort Worth Center
04:37PM 34.5717 -98.6719 106° East 449 517 37,000  Level Fort Worth Center
04:38PM 34.5336 -98.5228 107° East 449 517 37,000  Level Fort Worth Center
04:39PM 34.4992 -98.3761 106° East 454 522 37,000  Level Fort Worth Center
04:40PM 34.4650 -98.2272 106° East 459 528 37,000  Level Fort Worth Center
04:41PM 34.4281 -98.0808 107° East 459 528 37,000  Level Fort Worth Center
04:42PM 34.3933 -97.9319 106° East 459 528 37,000  Level Fort Worth Center
04:43PM 34.3586 -97.7858 106° East 459 528 37,000  Level Fort Worth Center
04:44PM 34.3214 -97.6347 107° East 464 534 37,000  Level Fort Worth Center
04:45PM 34.2861 -97.4889 106° East 464 534 37,000 360 Level Fort Worth Center
04:46PM 34.2483 -97.3406 107° East 464 534 37,800 900 Climbing Fort Worth Center
04:47PM 34.2128 -97.1950 106° East 464 534 38,800 600 Climbing Fort Worth Center
04:48PM 34.1811 -97.0444 104° East 459 528 39,000 60 Climbing Fort Worth Center
04:49PM 34.1450 -96.8789 105° East 460 529 39,000  Level Fort Worth Center
04:50PM 34.1131 -96.7261 104° East 460 529 39,000  Level Fort Worth Center
04:51PM 34.0914 -96.5908 101° East 455 524 39,000  Level Fort Worth Center
04:52PM 34.0569 -96.4408 105° East 455 524 39,000  Level Fort Worth Center
04:53PM 34.0264 -96.2908 104° East 455 524 39,000  Level Fort Worth Center
04:54PM 33.9917 -96.1383 105° East 455 524 39,000  Level Fort Worth Center
04:55PM 33.9567 -95.9911 106° East 455 524 39,000  Level Fort Worth Center
04:56PM 33.9214 -95.8317 105° East 455 524 39,000  Level Fort Worth Center
04:57PM 33.8861 -95.6844 106° East 455 524 39,000  Level Fort Worth Center
04:58PM 33.8550 -95.5553 106° East 455 524 39,000  Level Fort Worth Center
04:59PM 33.8256 -95.4083 104° East 455 524 39,000  Level Fort Worth Center
05:00PM 33.7981 -95.2589 102° East 455 524 39,000  Level Fort Worth Center
05:01PM 33.7703 -95.1072 102° East 455 524 39,000  Level Fort Worth Center
05:02PM 33.7383 -94.9556 104° East 455 524 39,000  Level Fort Worth Center
05:03PM 33.7081 -94.8067 104° East 455 524 39,000  Level Fort Worth Center
05:04PM 33.6842 -94.6575 101° East 460 529 39,000  Level Fort Worth Center
05:05PM 33.6556 -94.5089 103° East 455 524 39,000  Level Fort Worth Center
05:06PM 33.6269 -94.3600 103° East 455 524 39,000  Level Fort Worth Center
05:07PM 33.5983 -94.2114 103° East 455 524 39,000  Level Fort Worth Center
05:08PM 33.5694 -94.0631 103° East 450 518 39,000  Level Fort Worth Center
05:09PM 33.5422 -93.9094 102° East 456 525 39,000  Level Fort Worth Center
05:10PM 33.5086 -93.7564 105° East 468 539 39,000  Level Fort Worth Center
05:11PM 33.4703 -93.5911 105° East 468 539 39,000  Level Fort Worth Center
05:12PM 33.4261 -93.4439 110° East 468 539 39,000  Level Fort Worth Center
05:13PM 33.3858 -93.2939 108° East 468 539 39,000  Level Fort Worth Center
05:14PM 33.3456 -93.1464 108° East 468 539 39,000  Level Fort Worth Center
05:16PM 33.2642 -92.8525 108° East 463 533 39,000  Level Fort Worth Center
05:17PM 33.2253 -92.7053 107° East 463 533 39,000  Level Fort Worth Center
05:18PM 33.1842 -92.5586 108° East 463 533 39,000  Level Fort Worth Center
05:19PM 33.1450 -92.4119 108° East 456 525 39,000  Level Fort Worth Center
05:20PM 33.0703 -92.1594 109° East 452 520 39,000  Level Memphis Center
05:21PM 33.0386 -92.0425 108° East 452 520 39,000  Level Memphis Center
05:22PM 32.9864 -91.8828 111° Southeast 458 527 39,000  Level Memphis Center
05:23PM 32.9483 -91.7386 107° East 458 527 39,000  Level Memphis Center
05:24PM 32.9058 -91.5919 109° East 463 533 39,000  Level Memphis Center
05:25PM 32.8633 -91.4481 109° East 463 533 39,000  Level Memphis Center
05:26PM 32.8189 -91.2917 109° East 463 533 39,000  Level Memphis Center
05:27PM 32.7758 -91.1481 110° East 463 533 39,000  Level Memphis Center
05:28PM 32.7328 -91.0092 110° East 463 533 39,000  Level Memphis Center
05:29PM 32.6917 -90.8633 108° East 463 533 39,000  Level Memphis Center
05:30PM 32.6483 -90.7225 110° East 458 527 39,000  Level Memphis Center
05:31PM 32.6069 -90.5792 109° East 458 527 39,000  Level Memphis Center
05:32PM 32.5633 -90.4361 110° East 458 527 39,000  Level Memphis Center
05:33PM 32.5194 -90.2958 110° East 458 527 39,000  Level Memphis Center
05:34PM 32.4775 -90.1506 109° East 458 527 39,000  Level Memphis Center
05:35PM 32.4314 -90.0078 111° Southeast 458 527 39,000  Level Memphis Center
05:36PM 32.3933 -89.8775 109° East 458 527 39,000  Level Memphis Center
05:37PM 32.3572 -89.7303 106° East 463 533 39,000  Level Memphis Center
05:38PM 32.3417 -89.5803 97° East 458 527 39,000  Level Memphis Center
05:39PM 32.3303 -89.4306 95° East 458 527 39,000  Level Memphis Center
05:40PM 32.3247 -89.2781 92° East 465 535 39,000  Level Memphis Center
05:41PM 32.3192 -89.1281 92° East 458 527 39,000  Level Memphis Center
05:42PM 32.3197 -88.9783 90° East 458 527 39,000  Level Memphis Center
05:43PM 32.3181 -88.8283 91° East 458 527 39,000  Level Memphis Center
05:45PM 32.3139 -88.5361 91° East 463 533 39,000  Level Atlanta Center
05:46PM 32.2794 -88.3894 105° East 463 533 39,000  Level Atlanta Center
05:47PM 32.2281 -88.2472 113° Southeast 456 525 39,000  Level Atlanta Center
05:48PM 32.1700 -88.1069 116° Southeast 461 531 39,000  Level Atlanta Center
05:49PM 32.1119 -87.9669 116° Southeast 473 544 39,000  Level Atlanta Center
05:50PM 32.0558 -87.8272 115° Southeast 473 544 39,000  Level Atlanta Center
05:51PM 31.9994 -87.6878 115° Southeast 473 544 39,000  Level Atlanta Center
05:52PM 31.9486 -87.5731 118° Southeast 478 550 39,000  Level Atlanta Center
05:53PM 31.8844 -87.4067 114° Southeast 473 544 39,000  Level Atlanta Center
05:54PM 31.8214 -87.2700 118° Southeast 478 550 39,000  Level Atlanta Center
05:55PM 31.7664 -87.1336 115° Southeast 478 550 39,000  Level Atlanta Center
05:56PM 31.7050 -86.9950 117° Southeast 478 550 39,000  Level Atlanta Center
05:58PM 31.6083 -86.7686 117° Southeast 497 572 39,000  Level Jacksonville Center
05:59PM 31.5478 -86.6319 117° Southeast 479 551 39,000  Level Jacksonville Center
06:00PM 31.4889 -86.4958 117° Southeast 473 544 39,000  Level Jacksonville Center
06:01PM 31.4322 -86.3619 116° Southeast 467 537 39,000 -420 Level Jacksonville Center
06:02PM 31.3672 -86.2136 117° Southeast 466 536 38,200 -900 Descending Jacksonville Center
06:03PM 31.3081 -86.0778 117° Southeast 466 536 37,300 -900 Descending Jacksonville Center
06:04PM 31.2508 -85.9422 116° Southeast 466 536 36,400 -960 Descending Jacksonville Center
06:05PM 31.1894 -85.8042 117° Southeast 466 536 35,400 -1,020 Descending Jacksonville Center
06:06PM 31.1467 -85.6647 110° East 466 536 34,400 -1,020 Descending Jacksonville Center
06:07PM 31.1081 -85.5203 107° East 461 531 33,400 -720 Descending Jacksonville Center
06:08PM 31.0669 -85.3761 108° East 461 531 33,000 -240 Descending Jacksonville Center
06:09PM 31.0281 -85.2319 107° East 466 536 33,000  Level Jacksonville Center
06:10PM 30.9867 -85.0881 109° East 466 536 33,000  Level Jacksonville Center
06:11PM 30.9453 -84.9417 108° East 466 536 33,000  Level Jacksonville Center
06:12PM 30.9036 -84.7933 108° East 466 536 33,000 -300 Level Jacksonville Center
06:13PM 30.8600 -84.6472 109° East 471 542 32,500 -840 Descending Jacksonville Center
06:14PM 30.8200 -84.5036 108° East 471 542 31,400 -1,080 Descending Jacksonville Center
06:15PM 30.7800 -84.3603 108° East 471 542 30,400 -1,020 Descending Jacksonville Center
06:16PM 30.7378 -84.2194 109° East 465 535 29,400 -1,020 Descending Jacksonville Center
06:17PM 30.6994 -84.0789 108° East 460 529 28,400 -1,020 Descending Jacksonville Center
06:18PM 30.6569 -83.9406 110° East 455 524 27,400 -1,080 Descending Jacksonville Center
06:19PM 30.6203 -83.8100 108° East 447 514 26,300 -1,080 Descending Jacksonville Center
06:20PM 30.5814 -83.6792 109° East 442 509 25,300 -960 Descending Jacksonville Center
06:21PM 30.5508 -83.5681 108° East 424 488 24,400 -660 Descending Jacksonville Center
06:22PM 30.5325 -83.4378 99° East 404 465 24,000 -240 Descending Jacksonville Center
06:23PM 30.5311 -83.3050 91° East 404 465 24,000 -120 Level Jacksonville Center
06:24PM 30.5250 -83.1747 93° East 404 465 23,800 -1,140 Descending Jacksonville Center
06:25PM 30.5233 -83.0494 91° East 404 465 21,800 -2,040 Descending Jacksonville Center
06:26PM 30.5192 -82.9239 92° East 393 452 19,800 -1,980 Descending Jacksonville Center
06:27PM 30.5128 -82.8058 94° East 381 438 17,900 -1,920 Descending Jacksonville Center
06:28PM 30.5022 -82.6853 96° East 376 433 16,000 -1,980 Descending Jacksonville Center
06:29PM 30.4856 -82.6058 104° East 363 418 14,700 -1,740 Descending Jacksonville Center
06:30PM 30.4578 -82.4539 102° East 353 406 12,600 -1,320 Descending Jacksonville Center
06:31PM 30.4386 -82.3506 102° East 346 398 11,600 -1,020 Descending Jacksonville Center
06:32PM 30.4214 -82.2494 101° East 319 367 10,600 -1,200 Descending Jacksonville Center
06:33PM 30.4042 -82.1581 102° East 301 346 9,200 -1,380 Descending Jacksonville Center
06:34PM 30.3850 -82.0667 104° East 285 328 7,900 -1,080 Descending Jacksonville Center
06:35PM 30.3864 -81.9678 89° East 248 285 6,900 -1,200 Descending Jacksonville Center
06:36PM 30.4194 -81.9217 50° Northeast 229 264 5,500 -2,160 Descending Jacksonville Center
06:37PM 30.4003 -81.8667 112° Southeast 179 206 3,100 -1,800 Descending Jacksonville Center
06:38PM 30.3839 -81.9172 249° West 49 56 1,900 -480 Descending Jacksonville Center
06:39PM 30.4189 -81.8567 56° Northeast 198 228 2,000  Climbing Jacksonville Center
06:40PM 30.4183 -81.7967 91° East 199 229 2,000  Level Jacksonville Center
06:41PM 30.4200 -81.7339 88° East 181 208 2,000 -300 Level Jacksonville Center
06:42PM 30.4300 -81.6808 78° East 144 166 1,400 -780 Descending Jacksonville Center
06:43PM 30.4631 -81.6683 18° North 138 159 500 -900 Descending Jacksonville Center
06:45PM 30.4833 -81.6833 311° West  Level FlightAware Approximate
06:52PM 30.4941 -81.6879 311° West  Level Estimated